sensor_id;sensor_type;location;lat;lon;timestamp;temperature;humidity
49379;DHT22;35254;47.990;-1.608;2023-10-13T00:01:07;25.30;61.70
49379;DHT22;35254;47.990;-1.608;2023-10-13T00:03:33;25.40;61.70
49379;DHT22;35254;47.990;-1.608;2023-10-13T00:05:59;25.40;61.60
49379;DHT22;35254;47.990;-1.608;2023-10-13T00:08:31;25.30;61.50
49379;DHT22;35254;47.990;-1.608;2023-10-13T00:10:57;25.40;62.10
49379;DHT22;35254;47.990;-1.608;2023-10-13T00:13:29;25.40;61.70
49379;DHT22;35254;47.990;-1.608;2023-10-13T00:15:59;25.30;61.60
49379;DHT22;35254;47.990;-1.608;2023-10-13T00:18:30;25.30;61.50
49379;DHT22;35254;47.990;-1.608;2023-10-13T00:20:59;25.30;61.50
49379;DHT22;35254;47.990;-1.608;2023-10-13T00:23:25;25.30;61.70
49379;DHT22;35254;47.990;-1.608;2023-10-13T00:25:54;25.30;61.60
49379;DHT22;35254;47.990;-1.608;2023-10-13T00:28:24;25.30;61.50
49379;DHT22;35254;47.990;-1.608;2023-10-13T00:30:52;25.30;61.60
49379;DHT22;35254;47.990;-1.608;2023-10-13T00:33:19;25.30;61.60
49379;DHT22;35254;47.990;-1.608;2023-10-13T00:35:50;25.30;61.60
49379;DHT22;35254;47.990;-1.608;2023-10-13T00:38:18;25.30;61.50
49379;DHT22;35254;47.990;-1.608;2023-10-13T00:40:45;25.20;61.60
49379;DHT22;35254;47.990;-1.608;2023-10-13T00:43:18;25.30;61.70
49379;DHT22;35254;47.990;-1.608;2023-10-13T00:45:50;25.20;61.70
49379;DHT22;35254;47.990;-1.608;2023-10-13T00:48:45;25.30;61.60
49379;DHT22;35254;47.990;-1.608;2023-10-13T00:51:17;25.20;61.80
49379;DHT22;35254;47.990;-1.608;2023-10-13T00:53:44;25.20;61.70
49379;DHT22;35254;47.990;-1.608;2023-10-13T00:56:13;25.20;61.70
49379;DHT22;35254;47.990;-1.608;2023-10-13T00:58:49;25.20;61.50
49379;DHT22;35254;47.990;-1.608;2023-10-13T01:01:16;25.20;61.50
49379;DHT22;35254;47.990;-1.608;2023-10-13T01:03:54;25.20;61.70
49379;DHT22;35254;47.990;-1.608;2023-10-13T01:06:28;25.20;61.50
49379;DHT22;35254;47.990;-1.608;2023-10-13T01:11:46;25.20;61.70
49379;DHT22;35254;47.990;-1.608;2023-10-13T01:14:21;25.20;61.50
49379;DHT22;35254;47.990;-1.608;2023-10-13T01:16:49;25.20;61.60
49379;DHT22;35254;47.990;-1.608;2023-10-13T01:19:23;25.20;61.60
49379;DHT22;35254;47.990;-1.608;2023-10-13T01:21:53;25.20;61.40
49379;DHT22;35254;47.990;-1.608;2023-10-13T01:24:23;25.20;61.40
49379;DHT22;35254;47.990;-1.608;2023-10-13T01:26:50;25.20;61.60
49379;DHT22;35254;47.990;-1.608;2023-10-13T01:29:18;25.20;61.60
49379;DHT22;35254;47.990;-1.608;2023-10-13T01:31:45;25.20;61.50
49379;DHT22;35254;47.990;-1.608;2023-10-13T01:34:18;25.20;61.50
49379;DHT22;35254;47.990;-1.608;2023-10-13T01:36:55;25.20;61.50
49379;DHT22;35254;47.990;-1.608;2023-10-13T01:39:22;25.20;61.30
49379;DHT22;35254;47.990;-1.608;2023-10-13T01:41:54;25.20;61.30
49379;DHT22;35254;47.990;-1.608;2023-10-13T01:44:21;25.20;61.50
49379;DHT22;35254;47.990;-1.608;2023-10-13T01:46:46;25.20;61.40
49379;DHT22;35254;47.990;-1.608;2023-10-13T01:49:13;25.20;61.60
49379;DHT22;35254;47.990;-1.608;2023-10-13T01:51:41;25.20;61.30
49379;DHT22;35254;47.990;-1.608;2023-10-13T01:54:06;25.20;61.30
49379;DHT22;35254;47.990;-1.608;2023-10-13T01:56:37;25.20;61.40
49379;DHT22;35254;47.990;-1.608;2023-10-13T01:59:08;25.10;61.30
49379;DHT22;35254;47.990;-1.608;2023-10-13T02:01:35;25.20;61.40
49379;DHT22;35254;47.990;-1.608;2023-10-13T02:04:01;25.20;61.40
49379;DHT22;35254;47.990;-1.608;2023-10-13T02:06:33;25.10;61.40
49379;DHT22;35254;47.990;-1.608;2023-10-13T02:09:05;25.10;61.40
49379;DHT22;35254;47.990;-1.608;2023-10-13T02:11:51;25.10;61.40
49379;DHT22;35254;47.990;-1.608;2023-10-13T02:14:20;25.20;61.30
49379;DHT22;35254;47.990;-1.608;2023-10-13T02:16:48;25.10;61.10
49379;DHT22;35254;47.990;-1.608;2023-10-13T02:19:16;25.10;61.20
49379;DHT22;35254;47.990;-1.608;2023-10-13T02:21:45;25.10;61.00
49379;DHT22;35254;47.990;-1.608;2023-10-13T02:24:11;25.10;61.00
49379;DHT22;35254;47.990;-1.608;2023-10-13T02:26:44;25.10;60.90
49379;DHT22;35254;47.990;-1.608;2023-10-13T02:29:10;25.00;61.00
49379;DHT22;35254;47.990;-1.608;2023-10-13T02:31:41;25.10;60.70
49379;DHT22;35254;47.990;-1.608;2023-10-13T02:34:07;25.10;60.90
49379;DHT22;35254;47.990;-1.608;2023-10-13T02:36:37;25.00;60.80
49379;DHT22;35254;47.990;-1.608;2023-10-13T02:39:16;25.10;60.50
49379;DHT22;35254;47.990;-1.608;2023-10-13T02:41:42;25.00;60.60
49379;DHT22;35254;47.990;-1.608;2023-10-13T02:44:13;25.00;60.50
49379;DHT22;35254;47.990;-1.608;2023-10-13T02:46:52;25.00;60.60
49379;DHT22;35254;47.990;-1.608;2023-10-13T02:49:27;25.00;60.70
49379;DHT22;35254;47.990;-1.608;2023-10-13T02:51:55;25.00;60.50
49379;DHT22;35254;47.990;-1.608;2023-10-13T02:54:21;25.00;60.40
49379;DHT22;35254;47.990;-1.608;2023-10-13T02:56:47;25.00;60.40
49379;DHT22;35254;47.990;-1.608;2023-10-13T02:59:30;25.00;60.40
49379;DHT22;35254;47.990;-1.608;2023-10-13T03:02:03;25.00;60.10
49379;DHT22;35254;47.990;-1.608;2023-10-13T03:04:40;25.00;60.40
49379;DHT22;35254;47.990;-1.608;2023-10-13T03:07:06;25.00;60.10
49379;DHT22;35254;47.990;-1.608;2023-10-13T03:09:32;25.00;60.30
49379;DHT22;35254;47.990;-1.608;2023-10-13T03:12:03;24.90;60.10
49379;DHT22;35254;47.990;-1.608;2023-10-13T03:14:29;25.00;60.20
49379;DHT22;35254;47.990;-1.608;2023-10-13T03:16:59;25.00;60.20
49379;DHT22;35254;47.990;-1.608;2023-10-13T03:19:30;24.90;60.10
49379;DHT22;35254;47.990;-1.608;2023-10-13T03:22:05;25.00;60.00
49379;DHT22;35254;47.990;-1.608;2023-10-13T03:24:35;25.00;60.00
49379;DHT22;35254;47.990;-1.608;2023-10-13T03:27:02;25.00;60.00
49379;DHT22;35254;47.990;-1.608;2023-10-13T03:29:37;24.90;59.90
49379;DHT22;35254;47.990;-1.608;2023-10-13T03:32:18;24.90;59.80
49379;DHT22;35254;47.990;-1.608;2023-10-13T03:34:45;25.00;59.90
49379;DHT22;35254;47.990;-1.608;2023-10-13T03:37:36;24.90;59.90
49379;DHT22;35254;47.990;-1.608;2023-10-13T03:40:06;25.00;59.90
49379;DHT22;35254;47.990;-1.608;2023-10-13T03:42:54;25.00;59.60
49379;DHT22;35254;47.990;-1.608;2023-10-13T03:45:44;24.90;59.70
49379;DHT22;35254;47.990;-1.608;2023-10-13T03:48:17;24.90;59.80
49379;DHT22;35254;47.990;-1.608;2023-10-13T03:50:53;24.90;59.80
49379;DHT22;35254;47.990;-1.608;2023-10-13T03:53:39;24.90;59.90
49379;DHT22;35254;47.990;-1.608;2023-10-13T03:56:21;24.90;59.70
49379;DHT22;35254;47.990;-1.608;2023-10-13T03:58:58;24.90;59.60
49379;DHT22;35254;47.990;-1.608;2023-10-13T04:01:25;24.90;59.50
49379;DHT22;35254;47.990;-1.608;2023-10-13T04:03:58;24.90;59.50
49379;DHT22;35254;47.990;-1.608;2023-10-13T04:06:34;24.90;59.40
49379;DHT22;35254;47.990;-1.608;2023-10-13T04:09:19;24.90;59.60
49379;DHT22;35254;47.990;-1.608;2023-10-13T04:12:02;24.90;59.50
49379;DHT22;35254;47.990;-1.608;2023-10-13T04:14:31;24.90;59.40
49379;DHT22;35254;47.990;-1.608;2023-10-13T04:17:18;24.90;59.60
49379;DHT22;35254;47.990;-1.608;2023-10-13T04:19:54;24.90;59.40
49379;DHT22;35254;47.990;-1.608;2023-10-13T04:22:42;24.90;59.50
49379;DHT22;35254;47.990;-1.608;2023-10-13T04:25:15;24.90;59.40
49379;DHT22;35254;47.990;-1.608;2023-10-13T04:27:59;24.90;59.30
49379;DHT22;35254;47.990;-1.608;2023-10-13T04:30:44;24.90;59.30
49379;DHT22;35254;47.990;-1.608;2023-10-13T04:33:19;24.90;59.00
49379;DHT22;35254;47.990;-1.608;2023-10-13T04:36:06;24.90;59.20
49379;DHT22;35254;47.990;-1.608;2023-10-13T04:38:44;24.80;59.10
49379;DHT22;35254;47.990;-1.608;2023-10-13T04:41:30;24.90;59.30
49379;DHT22;35254;47.990;-1.608;2023-10-13T04:43:58;24.80;59.20
49379;DHT22;35254;47.990;-1.608;2023-10-13T04:46:31;24.90;59.00
49379;DHT22;35254;47.990;-1.608;2023-10-13T04:49:12;24.80;59.30
49379;DHT22;35254;47.990;-1.608;2023-10-13T04:51:57;24.80;59.00
49379;DHT22;35254;47.990;-1.608;2023-10-13T04:54:44;24.80;59.00
49379;DHT22;35254;47.990;-1.608;2023-10-13T04:57:13;24.80;59.10
49379;DHT22;35254;47.990;-1.608;2023-10-13T05:00:00;24.80;59.10
49379;DHT22;35254;47.990;-1.608;2023-10-13T05:02:35;24.80;58.90
49379;DHT22;35254;47.990;-1.608;2023-10-13T05:08:08;24.80;58.80
49379;DHT22;35254;47.990;-1.608;2023-10-13T05:11:04;24.80;58.90
49379;DHT22;35254;47.990;-1.608;2023-10-13T05:13:48;24.80;58.90
49379;DHT22;35254;47.990;-1.608;2023-10-13T05:16:32;24.80;58.90
49379;DHT22;35254;47.990;-1.608;2023-10-13T05:19:16;24.80;58.90
49379;DHT22;35254;47.990;-1.608;2023-10-13T05:22:00;24.80;58.70
49379;DHT22;35254;47.990;-1.608;2023-10-13T05:24:44;24.80;59.10
49379;DHT22;35254;47.990;-1.608;2023-10-13T05:27:29;24.70;59.00
49379;DHT22;35254;47.990;-1.608;2023-10-13T05:30:13;24.80;58.90
49379;DHT22;35254;47.990;-1.608;2023-10-13T05:32:57;24.80;58.80
49379;DHT22;35254;47.990;-1.608;2023-10-13T05:35:41;24.70;58.00
49379;DHT22;35254;47.990;-1.608;2023-10-13T05:38:25;24.80;58.90
49379;DHT22;35254;47.990;-1.608;2023-10-13T05:41:10;24.70;59.10
49379;DHT22;35254;47.990;-1.608;2023-10-13T05:43:53;24.70;59.40
49379;DHT22;35254;47.990;-1.608;2023-10-13T05:46:38;24.70;59.20
49379;DHT22;35254;47.990;-1.608;2023-10-13T05:49:05;24.70;59.20
49379;DHT22;35254;47.990;-1.608;2023-10-13T05:51:37;24.80;59.10
49379;DHT22;35254;47.990;-1.608;2023-10-13T05:54:10;24.70;59.10
49379;DHT22;35254;47.990;-1.608;2023-10-13T05:56:39;24.70;58.90
49379;DHT22;35254;47.990;-1.608;2023-10-13T05:59:23;24.70;59.40
49379;DHT22;35254;47.990;-1.608;2023-10-13T06:02:07;24.80;58.60
49379;DHT22;35254;47.990;-1.608;2023-10-13T06:04:51;24.70;59.20
49379;DHT22;35254;47.990;-1.608;2023-10-13T06:07:35;24.80;58.80
49379;DHT22;35254;47.990;-1.608;2023-10-13T06:10:19;24.70;58.90
49379;DHT22;35254;47.990;-1.608;2023-10-13T06:13:04;24.70;58.80
49379;DHT22;35254;47.990;-1.608;2023-10-13T06:15:48;24.80;58.80
49379;DHT22;35254;47.990;-1.608;2023-10-13T06:18:32;24.70;60.10
49379;DHT22;35254;47.990;-1.608;2023-10-13T06:21:16;24.80;60.00
49379;DHT22;35254;47.990;-1.608;2023-10-13T06:24:00;24.70;59.10
49379;DHT22;35254;47.990;-1.608;2023-10-13T06:26:47;24.80;60.50
49379;DHT22;35254;47.990;-1.608;2023-10-13T06:29:32;24.80;61.00
49379;DHT22;35254;47.990;-1.608;2023-10-13T06:31:58;24.70;60.50
49379;DHT22;35254;47.990;-1.608;2023-10-13T06:34:30;24.70;60.10
49379;DHT22;35254;47.990;-1.608;2023-10-13T06:37:16;24.70;60.00
49379;DHT22;35254;47.990;-1.608;2023-10-13T06:39:52;24.70;59.80
49379;DHT22;35254;47.990;-1.608;2023-10-13T06:42:22;24.70;59.90
49379;DHT22;35254;47.990;-1.608;2023-10-13T06:44:55;24.70;60.20
49379;DHT22;35254;47.990;-1.608;2023-10-13T06:47:22;24.70;59.90
49379;DHT22;35254;47.990;-1.608;2023-10-13T06:49:49;24.70;60.00
49379;DHT22;35254;47.990;-1.608;2023-10-13T06:52:19;24.70;60.00
49379;DHT22;35254;47.990;-1.608;2023-10-13T06:54:50;24.70;60.00
49379;DHT22;35254;47.990;-1.608;2023-10-13T06:57:15;24.80;60.20
49379;DHT22;35254;47.990;-1.608;2023-10-13T06:59:46;24.70;60.10
49379;DHT22;35254;47.990;-1.608;2023-10-13T07:02:12;24.70;59.80
49379;DHT22;35254;47.990;-1.608;2023-10-13T07:04:47;24.70;59.80
49379;DHT22;35254;47.990;-1.608;2023-10-13T07:07:13;24.70;59.00
49379;DHT22;35254;47.990;-1.608;2023-10-13T07:09:44;24.70;58.60
49379;DHT22;35254;47.990;-1.608;2023-10-13T07:12:21;24.70;57.90
49379;DHT22;35254;47.990;-1.608;2023-10-13T07:14:52;24.80;57.80
49379;DHT22;35254;47.990;-1.608;2023-10-13T07:17:19;24.80;57.70
49379;DHT22;35254;47.990;-1.608;2023-10-13T07:19:55;24.70;57.40
49379;DHT22;35254;47.990;-1.608;2023-10-13T07:22:39;24.80;56.80
49379;DHT22;35254;47.990;-1.608;2023-10-13T07:25:05;24.80;57.70
49379;DHT22;35254;47.990;-1.608;2023-10-13T07:27:32;24.80;57.70
49379;DHT22;35254;47.990;-1.608;2023-10-13T07:30:01;24.80;57.80
49379;DHT22;35254;47.990;-1.608;2023-10-13T07:32:43;24.80;57.90
49379;DHT22;35254;47.990;-1.608;2023-10-13T07:35:14;24.90;57.80
49379;DHT22;35254;47.990;-1.608;2023-10-13T07:37:41;24.90;57.70
49379;DHT22;35254;47.990;-1.608;2023-10-13T07:40:11;24.80;57.80
49379;DHT22;35254;47.990;-1.608;2023-10-13T07:42:54;24.90;57.70
49379;DHT22;35254;47.990;-1.608;2023-10-13T07:45:27;24.90;57.60
49379;DHT22;35254;47.990;-1.608;2023-10-13T07:48:05;24.90;57.70
49379;DHT22;35254;47.990;-1.608;2023-10-13T07:50:38;24.90;57.80
49379;DHT22;35254;47.990;-1.608;2023-10-13T07:53:03;24.90;57.80
49379;DHT22;35254;47.990;-1.608;2023-10-13T07:55:45;24.90;58.00
49379;DHT22;35254;47.990;-1.608;2023-10-13T07:58:12;24.90;58.10
49379;DHT22;35254;47.990;-1.608;2023-10-13T08:00:39;24.90;58.00
49379;DHT22;35254;47.990;-1.608;2023-10-13T08:03:11;24.90;58.20
49379;DHT22;35254;47.990;-1.608;2023-10-13T08:05:52;25.00;58.10
49379;DHT22;35254;47.990;-1.608;2023-10-13T08:08:31;24.90;58.00
49379;DHT22;35254;47.990;-1.608;2023-10-13T08:11:20;25.00;58.00
49379;DHT22;35254;47.990;-1.608;2023-10-13T08:13:56;25.00;57.90
49379;DHT22;35254;47.990;-1.608;2023-10-13T08:16:30;25.00;58.00
49379;DHT22;35254;47.990;-1.608;2023-10-13T08:19:19;25.00;57.10
49379;DHT22;35254;47.990;-1.608;2023-10-13T08:21:46;25.00;57.40
49379;DHT22;35254;47.990;-1.608;2023-10-13T08:24:17;25.00;57.80
49379;DHT22;35254;47.990;-1.608;2023-10-13T08:26:52;25.00;57.30
49379;DHT22;35254;47.990;-1.608;2023-10-13T08:29:36;25.00;57.30
49379;DHT22;35254;47.990;-1.608;2023-10-13T08:32:27;25.00;56.80
49379;DHT22;35254;47.990;-1.608;2023-10-13T08:37:20;24.90;59.00
49379;DHT22;35254;47.990;-1.608;2023-10-13T08:39:53;24.90;59.10
49379;DHT22;35254;47.990;-1.608;2023-10-13T08:42:34;24.90;59.30
49379;DHT22;35254;47.990;-1.608;2023-10-13T08:47:59;24.90;59.70
49379;DHT22;35254;47.990;-1.608;2023-10-13T08:50:51;24.90;59.80
49379;DHT22;35254;47.990;-1.608;2023-10-13T08:53:23;24.90;59.90
49379;DHT22;35254;47.990;-1.608;2023-10-13T08:58:46;24.90;60.20
49379;DHT22;35254;47.990;-1.608;2023-10-13T09:04:09;24.80;60.60
49379;DHT22;35254;47.990;-1.608;2023-10-13T09:06:48;24.90;60.90
49379;DHT22;35254;47.990;-1.608;2023-10-13T09:09:27;24.80;61.00
49379;DHT22;35254;47.990;-1.608;2023-10-13T09:11:54;24.90;61.20
49379;DHT22;35254;47.990;-1.608;2023-10-13T09:14:36;24.90;61.40
49379;DHT22;35254;47.990;-1.608;2023-10-13T09:17:07;24.80;61.40
49379;DHT22;35254;47.990;-1.608;2023-10-13T09:19:45;24.90;61.50
49379;DHT22;35254;47.990;-1.608;2023-10-13T09:22:29;24.90;61.70
49379;DHT22;35254;47.990;-1.608;2023-10-13T09:25:02;24.90;61.80
49379;DHT22;35254;47.990;-1.608;2023-10-13T09:27:33;24.90;62.30
49379;DHT22;35254;47.990;-1.608;2023-10-13T09:30:04;24.90;62.20
49379;DHT22;35254;47.990;-1.608;2023-10-13T09:32:44;24.90;62.40
49379;DHT22;35254;47.990;-1.608;2023-10-13T09:35:18;24.90;62.80
49379;DHT22;35254;47.990;-1.608;2023-10-13T09:37:50;24.80;63.00
49379;DHT22;35254;47.990;-1.608;2023-10-13T09:40:18;24.90;63.30
49379;DHT22;35254;47.990;-1.608;2023-10-13T09:43:02;24.90;63.60
49379;DHT22;35254;47.990;-1.608;2023-10-13T09:45:34;24.90;63.90
49379;DHT22;35254;47.990;-1.608;2023-10-13T09:48:10;24.90;63.70
49379;DHT22;35254;47.990;-1.608;2023-10-13T09:50:43;24.90;63.20
49379;DHT22;35254;47.990;-1.608;2023-10-13T09:53:11;24.90;62.60
49379;DHT22;35254;47.990;-1.608;2023-10-13T09:55:44;24.80;62.30
49379;DHT22;35254;47.990;-1.608;2023-10-13T09:58:12;24.80;61.90
49379;DHT22;35254;47.990;-1.608;2023-10-13T10:00:56;24.80;61.70
49379;DHT22;35254;47.990;-1.608;2023-10-13T10:03:45;24.90;61.40
49379;DHT22;35254;47.990;-1.608;2023-10-13T10:06:22;24.80;61.20
49379;DHT22;35254;47.990;-1.608;2023-10-13T10:09:04;24.80;61.10
49379;DHT22;35254;47.990;-1.608;2023-10-13T10:17:13;24.80;61.20
49379;DHT22;35254;47.990;-1.608;2023-10-13T10:19:53;24.80;61.80
49379;DHT22;35254;47.990;-1.608;2023-10-13T10:22:28;24.80;61.20
49379;DHT22;35254;47.990;-1.608;2023-10-13T10:24:59;24.80;61.10
49379;DHT22;35254;47.990;-1.608;2023-10-13T10:27:31;24.80;60.80
49379;DHT22;35254;47.990;-1.608;2023-10-13T10:29:58;24.80;60.90
49379;DHT22;35254;47.990;-1.608;2023-10-13T10:32:37;24.80;60.80
49379;DHT22;35254;47.990;-1.608;2023-10-13T10:35:09;24.80;60.60
49379;DHT22;35254;47.990;-1.608;2023-10-13T10:37:46;24.80;60.50
49379;DHT22;35254;47.990;-1.608;2023-10-13T10:40:15;24.90;60.40
49379;DHT22;35254;47.990;-1.608;2023-10-13T10:42:59;24.80;60.70
49379;DHT22;35254;47.990;-1.608;2023-10-13T10:45:36;24.80;60.60
49379;DHT22;35254;47.990;-1.608;2023-10-13T10:48:02;24.90;60.70
49379;DHT22;35254;47.990;-1.608;2023-10-13T10:50:44;24.80;60.70
49379;DHT22;35254;47.990;-1.608;2023-10-13T10:53:17;24.80;60.60
49379;DHT22;35254;47.990;-1.608;2023-10-13T10:55:43;24.90;61.90
49379;DHT22;35254;47.990;-1.608;2023-10-13T10:58:08;24.90;60.60
49379;DHT22;35254;47.990;-1.608;2023-10-13T11:01:07;24.90;61.60
49379;DHT22;35254;47.990;-1.608;2023-10-13T11:03:37;24.90;61.50
49379;DHT22;35254;47.990;-1.608;2023-10-13T11:06:12;24.80;61.00
49379;DHT22;35254;47.990;-1.608;2023-10-13T11:08:45;24.80;61.10
49379;DHT22;35254;47.990;-1.608;2023-10-13T11:11:27;24.80;60.10
49379;DHT22;35254;47.990;-1.608;2023-10-13T11:13:56;24.80;60.00
49379;DHT22;35254;47.990;-1.608;2023-10-13T11:16:47;24.80;59.90
49379;DHT22;35254;47.990;-1.608;2023-10-13T11:19:17;24.80;59.80
49379;DHT22;35254;47.990;-1.608;2023-10-13T11:21:48;24.80;59.60
49379;DHT22;35254;47.990;-1.608;2023-10-13T11:24:14;24.80;60.30
49379;DHT22;35254;47.990;-1.608;2023-10-13T11:26:43;24.80;59.90
49379;DHT22;35254;47.990;-1.608;2023-10-13T11:29:19;24.80;59.50
49379;DHT22;35254;47.990;-1.608;2023-10-13T11:31:48;24.80;59.20
49379;DHT22;35254;47.990;-1.608;2023-10-13T11:34:24;24.80;59.70
49379;DHT22;35254;47.990;-1.608;2023-10-13T11:36:51;24.80;59.50
49379;DHT22;35254;47.990;-1.608;2023-10-13T11:39:17;24.80;59.10
49379;DHT22;35254;47.990;-1.608;2023-10-13T11:41:49;24.80;59.10
49379;DHT22;35254;47.990;-1.608;2023-10-13T11:44:21;24.80;59.40
49379;DHT22;35254;47.990;-1.608;2023-10-13T11:46:50;24.80;58.80
49379;DHT22;35254;47.990;-1.608;2023-10-13T11:49:21;24.80;59.30
49379;DHT22;35254;47.990;-1.608;2023-10-13T11:51:53;24.80;59.10
49379;DHT22;35254;47.990;-1.608;2023-10-13T11:54:28;24.80;59.50
49379;DHT22;35254;47.990;-1.608;2023-10-13T11:56:53;24.80;59.00
49379;DHT22;35254;47.990;-1.608;2023-10-13T11:59:23;24.80;58.70
49379;DHT22;35254;47.990;-1.608;2023-10-13T12:01:53;24.80;58.40
49379;DHT22;35254;47.990;-1.608;2023-10-13T12:04:39;24.80;58.90
49379;DHT22;35254;47.990;-1.608;2023-10-13T12:07:19;24.80;59.20
49379;DHT22;35254;47.990;-1.608;2023-10-13T12:09:47;24.90;59.70
49379;DHT22;35254;47.990;-1.608;2023-10-13T12:12:23;24.90;59.90
49379;DHT22;35254;47.990;-1.608;2023-10-13T12:14:49;24.90;60.00
49379;DHT22;35254;47.990;-1.608;2023-10-13T12:17:24;24.90;59.90
49379;DHT22;35254;47.990;-1.608;2023-10-13T12:19:56;24.90;59.80
49379;DHT22;35254;47.990;-1.608;2023-10-13T12:22:22;25.00;59.90
49379;DHT22;35254;47.990;-1.608;2023-10-13T12:24:57;25.00;59.50
49379;DHT22;35254;47.990;-1.608;2023-10-13T12:27:22;24.90;59.20
49379;DHT22;35254;47.990;-1.608;2023-10-13T12:30:01;25.00;60.00
49379;DHT22;35254;47.990;-1.608;2023-10-13T12:32:33;25.00;60.00
49379;DHT22;35254;47.990;-1.608;2023-10-13T12:35:00;25.00;59.70
49379;DHT22;35254;47.990;-1.608;2023-10-13T12:37:42;25.00;60.20
49379;DHT22;35254;47.990;-1.608;2023-10-13T12:40:12;25.00;60.00
49379;DHT22;35254;47.990;-1.608;2023-10-13T12:42:57;25.00;60.20
49379;DHT22;35254;47.990;-1.608;2023-10-13T12:45:43;25.00;60.20
49379;DHT22;35254;47.990;-1.608;2023-10-13T12:48:28;25.00;60.10
49379;DHT22;35254;47.990;-1.608;2023-10-13T12:51:12;25.10;60.30
49379;DHT22;35254;47.990;-1.608;2023-10-13T12:53:49;25.10;60.10
49379;DHT22;35254;47.990;-1.608;2023-10-13T12:56:15;25.00;60.30
49379;DHT22;35254;47.990;-1.608;2023-10-13T12:58:42;25.10;60.40
49379;DHT22;35254;47.990;-1.608;2023-10-13T13:01:08;25.00;60.30
49379;DHT22;35254;47.990;-1.608;2023-10-13T13:03:34;25.10;60.20
49379;DHT22;35254;47.990;-1.608;2023-10-13T13:06:00;25.10;60.40
49379;DHT22;35254;47.990;-1.608;2023-10-13T13:08:33;25.10;60.10
49379;DHT22;35254;47.990;-1.608;2023-10-13T13:11:01;25.10;60.20
49379;DHT22;35254;47.990;-1.608;2023-10-13T13:13:27;25.10;60.20
49379;DHT22;35254;47.990;-1.608;2023-10-13T13:15:52;25.10;59.80
49379;DHT22;35254;47.990;-1.608;2023-10-13T13:18:18;25.10;60.10
49379;DHT22;35254;47.990;-1.608;2023-10-13T13:20:45;25.10;60.30
49379;DHT22;35254;47.990;-1.608;2023-10-13T13:23:20;25.10;60.60
49379;DHT22;35254;47.990;-1.608;2023-10-13T13:25:47;25.10;60.30
49379;DHT22;35254;47.990;-1.608;2023-10-13T13:28:14;25.10;60.40
49379;DHT22;35254;47.990;-1.608;2023-10-13T13:30:44;25.10;60.50
49379;DHT22;35254;47.990;-1.608;2023-10-13T13:33:11;25.20;60.50
49379;DHT22;35254;47.990;-1.608;2023-10-13T13:35:40;25.20;60.30
49379;DHT22;35254;47.990;-1.608;2023-10-13T13:38:09;25.20;60.50
49379;DHT22;35254;47.990;-1.608;2023-10-13T13:41:01;25.10;60.60
49379;DHT22;35254;47.990;-1.608;2023-10-13T13:43:34;25.10;60.60
49379;DHT22;35254;47.990;-1.608;2023-10-13T13:46:08;25.20;60.70
49379;DHT22;35254;47.990;-1.608;2023-10-13T13:48:39;25.10;60.90
49379;DHT22;35254;47.990;-1.608;2023-10-13T13:51:06;25.20;61.50
49379;DHT22;35254;47.990;-1.608;2023-10-13T13:53:40;25.10;61.60
49379;DHT22;35254;47.990;-1.608;2023-10-13T13:56:11;25.20;61.60
49379;DHT22;35254;47.990;-1.608;2023-10-13T13:58:50;25.10;61.60
49379;DHT22;35254;47.990;-1.608;2023-10-13T14:01:16;25.10;61.30
49379;DHT22;35254;47.990;-1.608;2023-10-13T14:03:48;25.10;61.00
49379;DHT22;35254;47.990;-1.608;2023-10-13T14:06:20;25.10;60.90
49379;DHT22;35254;47.990;-1.608;2023-10-13T14:08:53;25.10;61.00
49379;DHT22;35254;47.990;-1.608;2023-10-13T14:11:26;25.10;61.20
49379;DHT22;35254;47.990;-1.608;2023-10-13T14:14:10;25.10;60.40
49379;DHT22;35254;47.990;-1.608;2023-10-13T14:16:54;25.10;60.60
49379;DHT22;35254;47.990;-1.608;2023-10-13T14:19:28;25.10;60.10
49379;DHT22;35254;47.990;-1.608;2023-10-13T14:21:57;25.10;59.90
49379;DHT22;35254;47.990;-1.608;2023-10-13T14:24:23;25.10;60.00
49379;DHT22;35254;47.990;-1.608;2023-10-13T14:27:02;25.10;59.90
49379;DHT22;35254;47.990;-1.608;2023-10-13T14:29:36;25.10;60.50
49379;DHT22;35254;47.990;-1.608;2023-10-13T14:32:11;25.10;60.60
49379;DHT22;35254;47.990;-1.608;2023-10-13T14:34:42;25.10;60.40
49379;DHT22;35254;47.990;-1.608;2023-10-13T14:37:09;25.10;60.70
49379;DHT22;35254;47.990;-1.608;2023-10-13T14:39:41;25.10;60.50
49379;DHT22;35254;47.990;-1.608;2023-10-13T14:42:06;25.10;60.50
49379;DHT22;35254;47.990;-1.608;2023-10-13T14:44:33;25.10;60.50
49379;DHT22;35254;47.990;-1.608;2023-10-13T14:46:59;25.10;60.60
49379;DHT22;35254;47.990;-1.608;2023-10-13T14:49:25;25.10;60.40
49379;DHT22;35254;47.990;-1.608;2023-10-13T14:51:51;25.10;60.70
49379;DHT22;35254;47.990;-1.608;2023-10-13T14:54:18;25.10;60.10
49379;DHT22;35254;47.990;-1.608;2023-10-13T14:56:50;25.10;59.70
49379;DHT22;35254;47.990;-1.608;2023-10-13T14:59:20;25.10;60.20
49379;DHT22;35254;47.990;-1.608;2023-10-13T15:01:47;25.10;60.00
49379;DHT22;35254;47.990;-1.608;2023-10-13T15:04:14;25.10;59.70
49379;DHT22;35254;47.990;-1.608;2023-10-13T15:06:40;25.10;59.70
49379;DHT22;35254;47.990;-1.608;2023-10-13T15:09:06;25.10;59.80
49379;DHT22;35254;47.990;-1.608;2023-10-13T15:11:36;25.10;60.10
49379;DHT22;35254;47.990;-1.608;2023-10-13T15:14:03;25.10;59.80
49379;DHT22;35254;47.990;-1.608;2023-10-13T15:16:29;25.10;59.60
49379;DHT22;35254;47.990;-1.608;2023-10-13T15:18:55;25.10;60.20
49379;DHT22;35254;47.990;-1.608;2023-10-13T15:21:26;25.10;60.10
49379;DHT22;35254;47.990;-1.608;2023-10-13T15:23:54;25.10;60.30
49379;DHT22;35254;47.990;-1.608;2023-10-13T15:26:25;25.10;60.10
49379;DHT22;35254;47.990;-1.608;2023-10-13T15:28:51;25.10;60.00
49379;DHT22;35254;47.990;-1.608;2023-10-13T15:31:22;25.10;60.10
49379;DHT22;35254;47.990;-1.608;2023-10-13T15:34:01;25.10;59.90
49379;DHT22;35254;47.990;-1.608;2023-10-13T15:36:42;25.10;60.30
49379;DHT22;35254;47.990;-1.608;2023-10-13T15:39:11;25.10;60.30
49379;DHT22;35254;47.990;-1.608;2023-10-13T15:41:41;25.10;60.40
49379;DHT22;35254;47.990;-1.608;2023-10-13T15:44:13;25.10;60.20
49379;DHT22;35254;47.990;-1.608;2023-10-13T15:46:39;25.00;58.90
49379;DHT22;35254;47.990;-1.608;2023-10-13T15:49:05;25.00;59.60
49379;DHT22;35254;47.990;-1.608;2023-10-13T15:51:34;25.00;60.90
49379;DHT22;35254;47.990;-1.608;2023-10-13T15:54:02;25.00;60.70
49379;DHT22;35254;47.990;-1.608;2023-10-13T15:56:28;25.00;60.40
49379;DHT22;35254;47.990;-1.608;2023-10-13T15:59:01;25.00;61.20
49379;DHT22;35254;47.990;-1.608;2023-10-13T16:01:27;25.00;60.60
49379;DHT22;35254;47.990;-1.608;2023-10-13T16:03:54;25.00;61.00
49379;DHT22;35254;47.990;-1.608;2023-10-13T16:06:20;25.00;60.90
49379;DHT22;35254;47.990;-1.608;2023-10-13T16:08:51;25.00;60.70
49379;DHT22;35254;47.990;-1.608;2023-10-13T16:11:17;25.00;60.80
49379;DHT22;35254;47.990;-1.608;2023-10-13T16:13:48;25.00;60.70
49379;DHT22;35254;47.990;-1.608;2023-10-13T16:16:19;25.00;60.80